Time;durP1;ratioP1;P1;durP2;ratioP2;P2;SDS_P1;SDS_P2;PMS_P1;PMS_P2;Temp;Humidity;BMP_temperature;BMP_pressure;BME280_temperature;BME280_humidity;BME280_pressure;Samples;Min_cycle;Max_cycle;Signal;HPM_P1;HPM_P2
2022/12/09 06:39:34;;;;;;;57.45;31.62;;;;;;;-3.43;100.00;97480.69;1865338;75;27927;-63
2022/12/09 06:42:03;;;;;;;59.13;30.40;;;;;;;-3.46;100.00;97493.70;1815637;77;20931;-62
2022/12/09 06:44:32;;;;;;;60.52;29.65;;;;;;;-3.38;100.00;97481.35;1824779;77;21116;-61
2022/12/09 06:46:59;;;;;;;56.63;27.07;;;;;;;-3.31;100.00;97481.59;1813405;78;21315;-65
2022/12/09 06:49:28;;;;;;;53.20;26.42;;;;;;;-3.20;100.00;97482.73;1826733;78;20951;-67
2022/12/09 06:51:54;;;;;;;39.58;22.62;;;;;;;-3.09;100.00;97484.13;1826764;78;20924;-62
2022/12/09 06:54:21;;;;;;;33.60;18.92;;;;;;;-2.96;100.00;97483.98;1827020;78;21539;-64
2022/12/09 06:56:50;;;;;;;32.55;19.73;;;;;;;-2.84;100.00;97479.63;1827043;78;21826;-64
2022/12/09 06:59:17;;;;;;;31.20;19.07;;;;;;;-2.73;100.00;97490.42;1827138;78;21375;-61
2022/12/09 07:01:44;;;;;;;29.37;19.40;;;;;;;-2.65;100.00;97484.38;1827747;78;20907;-66
2022/12/09 07:04:12;;;;;;;35.83;23.30;;;;;;;-2.56;100.00;97483.55;1827800;78;21014;-64
2022/12/09 07:06:41;;;;;;;30.97;20.40;;;;;;;-2.50;100.00;97486.63;1827416;78;20895;-66
2022/12/09 07:09:12;;;;;;;37.58;21.02;;;;;;;-2.44;100.00;97485.73;1827669;78;21089;-64
2022/12/09 07:11:41;;;;;;;35.63;20.57;;;;;;;-2.39;100.00;97493.75;1812596;77;21427;-63
2022/12/09 07:14:08;;;;;;;34.03;22.82;;;;;;;-2.35;100.00;97501.47;1817815;78;20837;-65
2022/12/09 07:16:35;;;;;;;35.10;22.62;;;;;;;-2.32;100.00;97495.78;1826301;78;20970;-65
2022/12/09 07:19:03;;;;;;;30.17;20.52;;;;;;;-2.32;100.00;97496.59;1826508;78;21015;-64
2022/12/09 07:21:30;;;;;;;32.65;20.88;;;;;;;-2.28;100.00;97497.75;1827697;78;21115;-63
2022/12/09 07:24:01;;;;;;;35.73;21.80;;;;;;;-2.22;100.00;97488.20;1815858;77;21094;-64
2022/12/09 07:26:32;;;;;;;35.65;21.85;;;;;;;-2.14;100.00;97493.13;1801898;77;20845;-62
2022/12/09 07:29:01;;;;;;;40.48;25.15;;;;;;;-2.09;100.00;97490.64;1815822;78;21035;-61
2022/12/09 07:31:28;;;;;;;47.83;27.42;;;;;;;-2.02;100.00;97491.86;1817450;78;21473;-63
2022/12/09 07:33:56;;;;;;;57.78;32.00;;;;;;;-1.97;100.00;97484.93;1817346;78;21171;-63
2022/12/09 07:36:25;;;;;;;54.42;32.00;;;;;;;-1.91;100.00;97486.69;1807243;77;20923;-64
2022/12/09 07:39:01;;;;;;;51.23;28.42;;;;;;;-1.80;100.00;97492.47;1802132;78;20912;-64
2022/12/09 07:41:27;;;;;;;47.08;26.97;;;;;;;-1.69;100.00;97496.95;1810144;79;20979;-61
2022/12/09 07:43:56;;;;;;;45.95;26.95;;;;;;;-1.60;100.00;97492.97;1819025;78;20924;-63
2022/12/09 07:46:25;;;;;;;54.25;30.32;;;;;;;-1.53;100.00;97492.36;1807211;79;21284;-64
2022/12/09 07:48:52;;;;;;;42.75;25.95;;;;;;;-1.46;100.00;97502.25;1810924;77;21395;-63
2022/12/09 07:51:18;;;;;;;49.90;28.47;;;;;;;-1.39;100.00;97506.89;1799412;79;20857;-63
2022/12/09 07:53:45;;;;;;;50.95;27.00;;;;;;;-1.31;100.00;97508.39;1798239;77;20860;-65
2022/12/09 07:56:13;;;;;;;53.55;28.05;;;;;;;-1.27;100.00;97501.66;1800032;77;20928;-62
2022/12/09 07:58:43;;;;;;;43.50;26.42;;;;;;;-1.23;100.00;97494.13;1793894;77;21937;-62
2022/12/09 08:01:14;;;;;;;50.20;28.62;;;;;;;-1.20;100.00;97491.06;1802487;77;20932;-68
2022/12/09 08:03:41;;;;;;;54.30;27.00;;;;;;;-1.12;100.00;97490.70;1806423;77;21644;-64
2022/12/09 08:06:15;;;;;;;44.88;27.22;;;;;;;-1.03;100.00;97484.07;1804763;77;21303;-64
2022/12/09 08:08:42;;;;;;;42.23;24.55;;;;;;;-0.95;100.00;97478.48;1795725;77;20995;-62
2022/12/09 08:11:21;;;;;;;47.73;26.15;;;;;;;-0.93;100.00;97476.42;1797926;79;21126;-62
2022/12/09 08:13:59;;;;;;;50.83;29.85;;;;;;;-0.92;100.00;97484.61;1783587;80;20928;-63
2022/12/09 08:16:26;;;;;;;56.50;32.17;;;;;;;-0.87;100.00;97491.27;1783273;80;21006;-63
2022/12/09 08:18:53;;;;;;;61.10;33.28;;;;;;;-0.83;100.00;97473.52;1786829;77;20967;-63
2022/12/09 08:21:27;;;;;;;53.80;30.35;;;;;;;-0.80;100.00;97472.25;1806931;77;20884;-64
2022/12/09 08:23:55;;;;;;;40.48;24.87;;;;;;;-0.82;100.00;97472.97;1785265;78;21073;-63
2022/12/09 08:26:23;;;;;;;45.00;26.55;;;;;;;-0.80;100.00;97474.88;1790806;77;21746;-64
2022/12/09 08:28:52;;;;;;;46.40;26.45;;;;;;;-0.84;100.00;97467.95;1818240;78;21427;-63
2022/12/09 08:31:22;;;;;;;52.27;28.42;;;;;;;-0.82;100.00;97466.41;1810585;77;20893;-66
2022/12/09 08:33:53;;;;;;;41.85;23.60;;;;;;;-0.80;100.00;97456.48;1801712;79;20915;-63
2022/12/09 08:36:26;;;;;;;39.90;23.90;;;;;;;-0.73;100.00;97458.47;1816122;79;22666;-66
2022/12/09 08:38:53;;;;;;;43.73;26.37;;;;;;;-0.66;100.00;97461.77;1802709;79;21529;-66
2022/12/09 08:41:37;;;;;;;48.85;27.58;;;;;;;-0.66;100.00;97457.83;1798089;77;21530;-65
2022/12/09 08:44:16;;;;;;;45.35;27.32;;;;;;;-0.64;100.00;97461.53;1819630;78;20853;-64
2022/12/09 08:46:50;;;;;;;44.18;26.93;;;;;;;-0.59;100.00;97453.23;1814979;79;20967;-61
2022/12/09 08:49:20;;;;;;;41.90;23.20;;;;;;;-0.52;100.00;97457.86;1815446;79;21063;-62
2022/12/09 08:51:48;;;;;;;37.33;21.15;;;;;;;-0.54;100.00;97459.12;1816037;77;20896;-65
2022/12/09 08:54:15;;;;;;;42.13;22.17;;;;;;;-0.58;100.00;97454.82;1799339;79;20960;-63
2022/12/09 08:56:48;;;;;;;43.00;22.75;;;;;;;-0.64;100.00;97457.08;1808482;78;20967;-63
2022/12/09 08:59:19;;;;;;;39.80;24.92;;;;;;;-0.68;100.00;97458.55;1802586;77;20953;-66
2022/12/09 09:01:46;;;;;;;40.43;26.82;;;;;;;-0.70;100.00;97449.59;1808658;77;21134;-62
2022/12/09 09:04:16;;;;;;;41.83;24.87;;;;;;;-0.69;100.00;97447.77;1826994;78;20922;-64
2022/12/09 09:06:44;;;;;;;37.42;23.98;;;;;;;-0.68;100.00;97436.19;1829188;78;21749;-64
2022/12/09 09:09:12;;;;;;;49.75;28.50;;;;;;;-0.66;100.00;97434.16;1805636;77;21026;-65
2022/12/09 09:11:39;;;;;;;47.20;28.87;;;;;;;-0.63;100.00;97432.35;1810440;79;20907;-66
2022/12/09 09:14:09;;;;;;;46.50;28.90;;;;;;;-0.61;100.00;97427.66;1817664;77;21169;-64
2022/12/09 09:16:42;;;;;;;48.02;30.12;;;;;;;-0.56;100.00;97423.81;1817939;78;20908;-63
2022/12/09 09:19:16;;;;;;;49.90;28.70;;;;;;;-0.50;100.00;97418.95;1807713;78;21453;-64
2022/12/09 09:21:43;;;;;;;38.65;25.15;;;;;;;-0.40;100.00;97417.81;1821099;78;20932;-64
2022/12/09 09:24:11;;;;;;;39.85;24.75;;;;;;;-0.34;100.00;97425.30;1819876;78;21493;-64
2022/12/09 09:26:40;;;;;;;42.67;26.30;;;;;;;-0.29;100.00;97420.94;1821226;76;21425;-61
2022/12/09 09:29:15;;;;;;;48.98;28.50;;;;;;;-0.25;100.00;97422.06;1796128;77;20968;-63
2022/12/09 09:31:42;;;;;;;55.98;32.00;;;;;;;-0.19;100.00;97419.79;1795803;79;21459;-66
2022/12/09 09:34:09;;;;;;;56.13;34.35;;;;;;;-0.12;100.00;97420.98;1793605;77;20991;-67
